PWSweather.com
Personal Weather Stations
Station Observations
SEVNO44
Sevno, PrimskovoSI 1276

SevnoPrimskovoSI 1276

Lat: 45.9796285, Lon: 14.924044999999978

Elevation: 1706.0368

Station Type: WS-2307

www.primskovo.eu/vreme

High Low Average
Temperature 63.1°F17.3°C 55.9°F13.3°C 59.3°F15.2°C
Dew Point 55.4°F13.0°C 52.6°F11.4°C 53.8°F12.1°C
Winds 4.1 mph 6.6 kmh Calm Calm 1.0 mph SE1.6 kmh SE
Wind Gusts 6.9 mph11.1 kmh -- 2.0 mph3.2 kmh
Humidity 90% 74% 82%
Pressure 30.13 in1020.3 mb 30.02 in1016.6 mb -
Precipitation 0.55 in14.0 mm - -
Hour Temp Dew Point Humidity Winds Wind Gusts Pressure Precip Precip Rate Daily Precip Total
12:00 AM 63.1°F17.3°C 55.1°F12.8°C 75% 0.1 mph NNW0.2 kmh NNW 0.9 mph1.4 kmh 30.02 in1016.6 mb 0.00 in0.0 mm 0.00 in0.0 mm 0.00 in0.0 mm
12:05 AM 63.1°F17.3°C 55.1°F12.8°C 75% 0.4 mph NNW0.6 kmh NNW 0.9 mph1.4 kmh 30.02 in1016.6 mb 0.00 in0.0 mm 0.00 in0.0 mm 0.00 in0.0 mm
12:10 AM 63.1°F17.3°C 55.4°F13.0°C 76% 0.5 mph NNW0.8 kmh NNW 0.9 mph1.4 kmh 30.02 in1016.6 mb 0.00 in0.0 mm 0.00 in0.0 mm 0.00 in0.0 mm
12:15 AM 63.0°F17.2°C 55.3°F12.9°C 76% 0.2 mph NNW0.3 kmh NNW 0.9 mph1.4 kmh 30.02 in1016.6 mb 0.00 in0.0 mm 0.00 in0.0 mm 0.00 in0.0 mm
12:20 AM 63.0°F17.2°C 55.3°F12.9°C 76% Calm Calm -- 30.02 in1016.6 mb 0.00 in0.0 mm 0.00 in0.0 mm 0.00 in0.0 mm
12:25 AM 63.0°F17.2°C 55.3°F12.9°C 76% Calm Calm -- 30.02 in1016.6 mb 0.00 in0.0 mm 0.00 in0.0 mm 0.00 in0.0 mm
12:30 AM 62.8°F17.1°C 55.1°F12.8°C 76% 0.2 mph NW0.3 kmh NW 1.1 mph1.8 kmh 30.02 in1016.6 mb 0.00 in0.0 mm 0.00 in0.0 mm 0.00 in0.0 mm
12:35 AM 62.8°F17.1°C 55.1°F12.8°C 76% 0.2 mph NW0.3 kmh NW 1.1 mph1.8 kmh 30.02 in1016.6 mb 0.00 in0.0 mm 0.00 in0.0 mm 0.00 in0.0 mm
12:40 AM 62.8°F17.1°C 55.1°F12.8°C 76% Calm Calm -- 30.02 in1016.6 mb 0.00 in0.0 mm 0.00 in0.0 mm 0.00 in0.0 mm
12:45 AM 62.8°F17.1°C 55.1°F12.8°C 76% Calm Calm -- 30.03 in1016.9 mb 0.00 in0.0 mm 0.00 in0.0 mm 0.00 in0.0 mm
12:50 AM 62.8°F17.1°C 55.1°F12.8°C 76% Calm Calm -- 30.03 in1016.9 mb 0.00 in0.0 mm 0.00 in0.0 mm 0.00 in0.0 mm
12:55 AM 62.8°F17.1°C 55.1°F12.8°C 76% Calm Calm -- 30.03 in1016.9 mb 0.00 in0.0 mm 0.00 in0.0 mm 0.00 in0.0 mm
01:00 AM 62.8°F17.1°C 55.1°F12.8°C 76% Calm Calm -- 30.03 in1016.9 mb 0.00 in0.0 mm 0.00 in0.0 mm 0.00 in0.0 mm
01:05 AM 62.8°F17.1°C 54.7°F12.6°C 75% Calm Calm -- 30.03 in1016.9 mb 0.00 in0.0 mm 0.00 in0.0 mm 0.00 in0.0 mm
01:10 AM 62.8°F17.1°C 54.7°F12.6°C 75% Calm Calm -- 30.03 in1016.9 mb 0.00 in0.0 mm 0.00 in0.0 mm 0.00 in0.0 mm
01:15 AM 62.8°F17.1°C 54.7°F12.6°C 75% 0.3 mph NNW0.5 kmh NNW 0.9 mph1.4 kmh 30.03 in1016.9 mb 0.00 in0.0 mm 0.00 in0.0 mm 0.00 in0.0 mm
01:20 AM 63.0°F17.2°C 54.9°F12.7°C 75% 0.4 mph NNW0.6 kmh NNW 0.9 mph1.4 kmh 30.03 in1016.9 mb 0.00 in0.0 mm 0.00 in0.0 mm 0.00 in0.0 mm
01:25 AM 62.8°F17.1°C 54.7°F12.6°C 75% Calm Calm 0.9 mph1.4 kmh 30.03 in1016.9 mb 0.00 in0.0 mm 0.00 in0.0 mm 0.00 in0.0 mm
01:30 AM 63.0°F17.2°C 54.9°F12.7°C 75% Calm Calm -- 30.03 in1016.9 mb 0.00 in0.0 mm 0.00 in0.0 mm 0.00 in0.0 mm
01:35 AM 62.8°F17.1°C 54.7°F12.6°C 75% Calm Calm -- 30.03 in1016.9 mb 0.00 in0.0 mm 0.00 in0.0 mm 0.00 in0.0 mm
01:40 AM 62.8°F17.1°C 54.7°F12.6°C 75% Calm Calm -- 30.03 in1016.9 mb 0.00 in0.0 mm 0.00 in0.0 mm 0.00 in0.0 mm
01:45 AM 62.8°F17.1°C 54.7°F12.6°C 75% Calm Calm -- 30.04 in1017.3 mb 0.00 in0.0 mm 0.00 in0.0 mm 0.00 in0.0 mm
01:50 AM 62.8°F17.1°C 54.7°F12.6°C 75% Calm Calm -- 30.03 in1016.9 mb 0.00 in0.0 mm 0.00 in0.0 mm 0.00 in0.0 mm
01:55 AM 62.8°F17.1°C 54.7°F12.6°C 75% Calm Calm -- 30.04 in1017.3 mb 0.00 in0.0 mm 0.00 in0.0 mm 0.00 in0.0 mm
02:05 AM 62.8°F17.1°C 54.7°F12.6°C 75% Calm Calm -- 30.04 in1017.3 mb 0.00 in0.0 mm 0.00 in0.0 mm 0.00 in0.0 mm
02:10 AM 62.8°F17.1°C 54.7°F12.6°C 75% 0.4 mph SE0.6 kmh SE 3.1 mph5.0 kmh 30.04 in1017.3 mb 0.00 in0.0 mm 0.00 in0.0 mm 0.00 in0.0 mm
02:15 AM 62.8°F17.1°C 54.7°F12.6°C 75% 1.8 mph ESE2.9 kmh ESE 3.1 mph5.0 kmh 30.04 in1017.3 mb 0.00 in0.0 mm 0.00 in0.0 mm 0.00 in0.0 mm
02:20 AM 62.8°F17.1°C 54.7°F12.6°C 75% 1.7 mph ESE2.7 kmh ESE 3.1 mph5.0 kmh 30.04 in1017.3 mb 0.00 in0.0 mm 0.00 in0.0 mm 0.00 in0.0 mm
02:25 AM 62.8°F17.1°C 54.7°F12.6°C 75% 0.2 mph SE0.3 kmh SE 2.7 mph4.3 kmh 30.04 in1017.3 mb 0.00 in0.0 mm 0.00 in0.0 mm 0.00 in0.0 mm
02:30 AM 62.8°F17.1°C 54.7°F12.6°C 75% Calm Calm -- 30.04 in1017.3 mb 0.00 in0.0 mm 0.00 in0.0 mm 0.00 in0.0 mm
02:35 AM 63.0°F17.2°C 54.9°F12.7°C 75% 0.4 mph W0.6 kmh W 2.0 mph3.2 kmh 30.04 in1017.3 mb 0.00 in0.0 mm 0.00 in0.0 mm 0.00 in0.0 mm
02:40 AM 63.0°F17.2°C 54.9°F12.7°C 75% 1.0 mph S1.6 kmh S 2.2 mph3.5 kmh 30.04 in1017.3 mb 0.00 in0.0 mm 0.00 in0.0 mm 0.00 in0.0 mm
02:45 AM 63.0°F17.2°C 54.9°F12.7°C 75% 2.7 mph SE4.3 kmh SE 6.9 mph11.1 kmh 30.03 in1016.9 mb 0.00 in0.0 mm 0.00 in0.0 mm 0.00 in0.0 mm
02:50 AM 63.0°F17.2°C 54.5°F12.5°C 74% 2.7 mph ESE4.3 kmh ESE 6.9 mph11.1 kmh 30.03 in1016.9 mb 0.00 in0.0 mm 0.00 in0.0 mm 0.00 in0.0 mm
02:55 AM 63.0°F17.2°C 54.5°F12.5°C 74% 1.1 mph WNW1.8 kmh WNW 2.2 mph3.5 kmh 30.03 in1016.9 mb 0.00 in0.0 mm 0.00 in0.0 mm 0.00 in0.0 mm
03:00 AM 63.0°F17.2°C 54.5°F12.5°C 74% 0.9 mph SSW1.4 kmh SSW 1.1 mph1.8 kmh 30.04 in1017.3 mb 0.00 in0.0 mm 0.00 in0.0 mm 0.00 in0.0 mm
03:05 AM 63.0°F17.2°C 54.5°F12.5°C 74% 0.4 mph SSW0.6 kmh SSW 1.1 mph1.8 kmh 30.04 in1017.3 mb 0.00 in0.0 mm 0.00 in0.0 mm 0.00 in0.0 mm
03:10 AM 62.8°F17.1°C 54.7°F12.6°C 75% 0.4 mph SSE0.6 kmh SSE 2.0 mph3.2 kmh 30.04 in1017.3 mb 0.00 in0.0 mm 0.00 in0.0 mm 0.00 in0.0 mm
03:15 AM 62.8°F17.1°C 54.7°F12.6°C 75% 0.6 mph S1.0 kmh S 2.0 mph3.2 kmh 30.04 in1017.3 mb 0.00 in0.0 mm 0.00 in0.0 mm 0.00 in0.0 mm
03:20 AM 62.8°F17.1°C 54.7°F12.6°C 75% 0.8 mph S1.3 kmh S 1.8 mph2.9 kmh 30.04 in1017.3 mb 0.00 in0.0 mm 0.00 in0.0 mm 0.00 in0.0 mm
03:25 AM 62.6°F17.0°C 54.6°F12.6°C 75% 0.6 mph SE1.0 kmh SE 1.8 mph2.9 kmh 30.04 in1017.3 mb 0.00 in0.0 mm 0.00 in0.0 mm 0.00 in0.0 mm
03:30 AM 62.4°F16.9°C 54.4°F12.4°C 75% 0.5 mph WNW0.8 kmh WNW 1.3 mph2.1 kmh 30.04 in1017.3 mb 0.00 in0.0 mm 0.00 in0.0 mm 0.00 in0.0 mm
03:35 AM 62.4°F16.9°C 54.4°F12.4°C 75% 0.8 mph NW1.3 kmh NW 1.3 mph2.1 kmh 30.04 in1017.3 mb 0.00 in0.0 mm 0.00 in0.0 mm 0.00 in0.0 mm
03:40 AM 62.4°F16.9°C 54.4°F12.4°C 75% 0.2 mph N0.3 kmh N 1.3 mph2.1 kmh 30.04 in1017.3 mb 0.00 in0.0 mm 0.00 in0.0 mm 0.00 in0.0 mm
03:45 AM 62.4°F16.9°C 54.4°F12.4°C 75% Calm Calm -- 30.04 in1017.3 mb 0.00 in0.0 mm 0.00 in0.0 mm 0.00 in0.0 mm
03:50 AM 62.2°F16.8°C 54.2°F12.3°C 75% Calm Calm -- 30.04 in1017.3 mb 0.00 in0.0 mm 0.00 in0.0 mm 0.00 in0.0 mm
03:55 AM 62.2°F16.8°C 54.2°F12.3°C 75% Calm Calm -- 30.04 in1017.3 mb 0.00 in0.0 mm 0.00 in0.0 mm 0.00 in0.0 mm
04:00 AM 62.2°F16.8°C 54.2°F12.3°C 75% 0.6 mph NNW1.0 kmh NNW 1.6 mph2.6 kmh 30.04 in1017.3 mb 0.00 in0.0 mm 0.00 in0.0 mm 0.00 in0.0 mm
04:05 AM 61.9°F16.6°C 53.9°F12.2°C 75% 1.4 mph NNW2.3 kmh NNW 1.6 mph2.6 kmh 30.04 in1017.3 mb 0.00 in0.0 mm 0.00 in0.0 mm 0.00 in0.0 mm
04:10 AM 61.9°F16.6°C 54.2°F12.3°C 76% 1.1 mph NNW1.8 kmh NNW 1.6 mph2.6 kmh 30.04 in1017.3 mb 0.00 in0.0 mm 0.00 in0.0 mm 0.00 in0.0 mm
04:15 AM 61.9°F16.6°C 54.2°F12.3°C 76% 0.3 mph NNW0.5 kmh NNW 1.6 mph2.6 kmh 30.04 in1017.3 mb 0.00 in0.0 mm 0.00 in0.0 mm 0.00 in0.0 mm
04:20 AM 61.9°F16.6°C 54.2°F12.3°C 76% Calm Calm -- 30.04 in1017.3 mb 0.00 in0.0 mm 0.00 in0.0 mm 0.00 in0.0 mm
04:25 AM 61.9°F16.6°C 54.2°F12.3°C 76% 0.7 mph WNW1.1 kmh WNW 2.2 mph3.5 kmh 30.04 in1017.3 mb 0.00 in0.0 mm 0.00 in0.0 mm 0.00 in0.0 mm
04:30 AM 61.9°F16.6°C 54.2°F12.3°C 76% 1.5 mph WNW2.4 kmh WNW 2.2 mph3.5 kmh 30.04 in1017.3 mb 0.00 in0.0 mm 0.00 in0.0 mm 0.00 in0.0 mm
04:35 AM 62.1°F16.7°C 54.0°F12.2°C 75% 1.9 mph W3.1 kmh W 2.5 mph4.0 kmh 30.04 in1017.3 mb 0.00 in0.0 mm 0.00 in0.0 mm 0.00 in0.0 mm
04:40 AM 62.1°F16.7°C 54.0°F12.2°C 75% 1.5 mph SW2.4 kmh SW 2.5 mph4.0 kmh 30.05 in1017.6 mb 0.00 in0.0 mm 0.00 in0.0 mm 0.00 in0.0 mm
04:45 AM 62.1°F16.7°C 54.0°F12.2°C 75% 1.3 mph S2.1 kmh S 2.9 mph4.7 kmh 30.05 in1017.6 mb 0.00 in0.0 mm 0.00 in0.0 mm 0.00 in0.0 mm
04:50 AM 62.1°F16.7°C 54.0°F12.2°C 75% 1.1 mph SE1.8 kmh SE 2.9 mph4.7 kmh 30.06 in1017.9 mb 0.00 in0.0 mm 0.00 in0.0 mm 0.00 in0.0 mm
04:55 AM 62.1°F16.7°C 54.0°F12.2°C 75% 0.3 mph ESE0.5 kmh ESE 1.1 mph1.8 kmh 30.06 in1017.9 mb 0.00 in0.0 mm 0.00 in0.0 mm 0.00 in0.0 mm
05:00 AM 62.1°F16.7°C 54.0°F12.2°C 75% 1.0 mph SSW1.6 kmh SSW 2.5 mph4.0 kmh 30.06 in1017.9 mb 0.00 in0.0 mm 0.00 in0.0 mm 0.00 in0.0 mm
05:05 AM 61.9°F16.6°C 53.9°F12.2°C 75% 1.1 mph SSW1.8 kmh SSW 2.5 mph4.0 kmh 30.06 in1017.9 mb 0.00 in0.0 mm 0.00 in0.0 mm 0.00 in0.0 mm
05:10 AM 61.9°F16.6°C 54.2°F12.3°C 76% 0.3 mph SSW0.5 kmh SSW 2.5 mph4.0 kmh 30.06 in1017.9 mb 0.00 in0.0 mm 0.00 in0.0 mm 0.00 in0.0 mm
05:15 AM 61.9°F16.6°C 54.2°F12.3°C 76% 0.8 mph SSE1.3 kmh SSE 2.7 mph4.3 kmh 30.06 in1017.9 mb 0.00 in0.0 mm 0.00 in0.0 mm 0.00 in0.0 mm
05:20 AM 61.9°F16.6°C 54.2°F12.3°C 76% 0.7 mph SE1.1 kmh SE 2.7 mph4.3 kmh 30.06 in1017.9 mb 0.00 in0.0 mm 0.00 in0.0 mm 0.00 in0.0 mm
05:25 AM 61.7°F16.5°C 54.1°F12.3°C 76% 0.3 mph WSW0.5 kmh WSW 2.7 mph4.3 kmh 30.06 in1017.9 mb 0.00 in0.0 mm 0.00 in0.0 mm 0.00 in0.0 mm
05:30 AM 61.5°F16.4°C 53.9°F12.2°C 76% 0.8 mph SW1.3 kmh SW 1.8 mph2.9 kmh 30.06 in1017.9 mb 0.00 in0.0 mm 0.00 in0.0 mm 0.00 in0.0 mm
05:35 AM 61.5°F16.4°C 53.9°F12.2°C 76% 0.6 mph SW1.0 kmh SW 1.8 mph2.9 kmh 30.07 in1018.3 mb 0.00 in0.0 mm 0.00 in0.0 mm 0.00 in0.0 mm
05:40 AM 61.5°F16.4°C 53.9°F12.2°C 76% 0.4 mph W0.6 kmh W 1.3 mph2.1 kmh 30.07 in1018.3 mb 0.00 in0.0 mm 0.00 in0.0 mm 0.00 in0.0 mm
05:45 AM 61.3°F16.3°C 53.7°F12.1°C 76% 0.8 mph WSW1.3 kmh WSW 1.3 mph2.1 kmh 30.07 in1018.3 mb 0.00 in0.0 mm 0.00 in0.0 mm 0.00 in0.0 mm
05:50 AM 61.3°F16.3°C 53.7°F12.1°C 76% 0.6 mph SW1.0 kmh SW 3.1 mph5.0 kmh 30.07 in1018.3 mb 0.00 in0.0 mm 0.00 in0.0 mm 0.00 in0.0 mm
05:55 AM 61.3°F16.3°C 53.7°F12.1°C 76% 0.8 mph SE1.3 kmh SE 3.1 mph5.0 kmh 30.07 in1018.3 mb 0.00 in0.0 mm 0.00 in0.0 mm 0.00 in0.0 mm
06:00 AM 61.3°F16.3°C 53.7°F12.1°C 76% 0.8 mph SE1.3 kmh SE 3.1 mph5.0 kmh 30.07 in1018.3 mb 0.00 in0.0 mm 0.00 in0.0 mm 0.00 in0.0 mm
06:05 AM 61.2°F16.2°C 53.5°F11.9°C 76% 1.0 mph S1.6 kmh S 3.4 mph5.5 kmh 30.07 in1018.3 mb 0.00 in0.0 mm 0.00 in0.0 mm 0.00 in0.0 mm
06:10 AM 61.2°F16.2°C 53.5°F11.9°C 76% 0.8 mph SSE1.3 kmh SSE 3.4 mph5.5 kmh 30.08 in1018.6 mb 0.00 in0.0 mm 0.00 in0.0 mm 0.00 in0.0 mm
06:15 AM 61.2°F16.2°C 53.5°F11.9°C 76% 0.4 mph SSE0.6 kmh SSE 2.0 mph3.2 kmh 30.08 in1018.6 mb 0.00 in0.0 mm 0.00 in0.0 mm 0.00 in0.0 mm
06:20 AM 61.0°F16.1°C 53.4°F11.9°C 76% 0.4 mph SSE0.6 kmh SSE 2.0 mph3.2 kmh 30.08 in1018.6 mb 0.00 in0.0 mm 0.00 in0.0 mm 0.00 in0.0 mm
06:25 AM 61.0°F16.1°C 53.4°F11.9°C 76% Calm Calm -- 30.08 in1018.6 mb 0.00 in0.0 mm 0.00 in0.0 mm 0.00 in0.0 mm
06:30 AM 61.0°F16.1°C 53.4°F11.9°C 76% Calm Calm -- 30.08 in1018.6 mb 0.00 in0.0 mm 0.00 in0.0 mm 0.00 in0.0 mm
06:35 AM 61.0°F16.1°C 53.4°F11.9°C 76% Calm Calm -- 30.09 in1019.0 mb 0.00 in0.0 mm 0.00 in0.0 mm 0.00 in0.0 mm
06:40 AM 61.0°F16.1°C 53.4°F11.9°C 76% Calm Calm -- 30.09 in1019.0 mb 0.00 in0.0 mm 0.00 in0.0 mm 0.00 in0.0 mm
06:45 AM 61.0°F16.1°C 53.7°F12.1°C 77% 0.2 mph SSE0.3 kmh SSE 2.7 mph4.3 kmh 30.09 in1019.0 mb 0.00 in0.0 mm 0.00 in0.0 mm 0.00 in0.0 mm
06:50 AM 61.0°F16.1°C 53.7°F12.1°C 77% 1.2 mph SSE1.9 kmh SSE 2.7 mph4.3 kmh 30.09 in1019.0 mb 0.00 in0.0 mm 0.00 in0.0 mm 0.00 in0.0 mm
06:55 AM 60.6°F15.9°C 53.4°F11.9°C 77% 1.0 mph SSE1.6 kmh SSE 2.7 mph4.3 kmh 30.09 in1019.0 mb 0.00 in0.0 mm 0.00 in0.0 mm 0.00 in0.0 mm
07:00 AM 60.6°F15.9°C 53.4°F11.9°C 77% 1.1 mph SE1.8 kmh SE 2.5 mph4.0 kmh 30.09 in1019.0 mb 0.00 in0.0 mm 0.00 in0.0 mm 0.00 in0.0 mm
07:05 AM 60.6°F15.9°C 53.4°F11.9°C 77% 2.3 mph S3.7 kmh S 2.5 mph4.0 kmh 30.10 in1019.3 mb 0.00 in0.0 mm 0.00 in0.0 mm 0.00 in0.0 mm
07:10 AM 60.6°F15.9°C 53.4°F11.9°C 77% 1.7 mph SSW2.7 kmh SSW 2.5 mph4.0 kmh 30.09 in1019.0 mb 0.00 in0.0 mm 0.00 in0.0 mm 0.00 in0.0 mm
07:15 AM 60.4°F15.8°C 53.2°F11.8°C 77% 0.6 mph S1.0 kmh S 2.5 mph4.0 kmh 30.09 in1019.0 mb 0.00 in0.0 mm 0.00 in0.0 mm 0.00 in0.0 mm
07:20 AM 60.6°F15.9°C 53.7°F12.1°C 78% 0.3 mph SSE0.5 kmh SSE 1.3 mph2.1 kmh 30.09 in1019.0 mb 0.00 in0.0 mm 0.00 in0.0 mm 0.00 in0.0 mm
07:25 AM 60.6°F15.9°C 53.7°F12.1°C 78% 0.2 mph SSE0.3 kmh SSE 1.3 mph2.1 kmh 30.10 in1019.3 mb 0.00 in0.0 mm 0.00 in0.0 mm 0.00 in0.0 mm
07:30 AM 60.4°F15.8°C 53.5°F11.9°C 78% Calm Calm -- 30.10 in1019.3 mb 0.00 in0.0 mm 0.00 in0.0 mm 0.00 in0.0 mm
07:35 AM 60.4°F15.8°C 53.5°F11.9°C 78% Calm Calm -- 30.10 in1019.3 mb 0.00 in0.0 mm 0.00 in0.0 mm 0.00 in0.0 mm
07:40 AM 60.4°F15.8°C 53.2°F11.8°C 77% 0.2 mph ENE0.3 kmh ENE 1.1 mph1.8 kmh 30.10 in1019.3 mb 0.00 in0.0 mm 0.00 in0.0 mm 0.00 in0.0 mm
07:45 AM 60.6°F15.9°C 53.4°F11.9°C 77% 0.9 mph ENE1.4 kmh ENE 2.0 mph3.2 kmh 30.10 in1019.3 mb 0.00 in0.0 mm 0.00 in0.0 mm 0.00 in0.0 mm
07:50 AM 60.4°F15.8°C 53.5°F11.9°C 78% 1.2 mph ENE1.9 kmh ENE 2.0 mph3.2 kmh 30.10 in1019.3 mb 0.00 in0.0 mm 0.00 in0.0 mm 0.00 in0.0 mm
07:55 AM 60.4°F15.8°C 53.5°F11.9°C 78% 1.1 mph ESE1.8 kmh ESE 2.2 mph3.5 kmh 30.10 in1019.3 mb 0.00 in0.0 mm 0.00 in0.0 mm 0.00 in0.0 mm
08:00 AM 60.4°F15.8°C 53.5°F11.9°C 78% 1.1 mph S1.8 kmh S 2.2 mph3.5 kmh 30.10 in1019.3 mb 0.00 in0.0 mm 0.00 in0.0 mm 0.00 in0.0 mm
08:05 AM 60.4°F15.8°C 53.5°F11.9°C 78% 1.8 mph S2.9 kmh S 2.2 mph3.5 kmh 30.11 in1019.6 mb 0.00 in0.0 mm 0.00 in0.0 mm 0.00 in0.0 mm
08:10 AM 60.1°F15.6°C 53.5°F11.9°C 79% 1.3 mph S2.1 kmh S 2.2 mph3.5 kmh 30.11 in1019.6 mb 0.00 in0.0 mm 0.00 in0.0 mm 0.00 in0.0 mm
08:15 AM 59.9°F15.5°C 53.4°F11.9°C 79% 1.0 mph S1.6 kmh S 5.1 mph8.2 kmh 30.11 in1019.6 mb 0.00 in0.0 mm 0.00 in0.0 mm 0.00 in0.0 mm
08:20 AM 59.9°F15.5°C 53.7°F12.1°C 80% 2.4 mph SSW3.9 kmh SSW 5.1 mph8.2 kmh 30.11 in1019.6 mb 0.00 in0.0 mm 0.00 in0.0 mm 0.00 in0.0 mm
08:25 AM 59.7°F15.4°C 53.5°F11.9°C 80% 2.6 mph SW4.2 kmh SW 5.1 mph8.2 kmh 30.11 in1019.6 mb 0.00 in0.0 mm 0.00 in0.0 mm 0.00 in0.0 mm
08:30 AM 59.5°F15.3°C 53.4°F11.9°C 80% 1.8 mph WSW2.9 kmh WSW 2.5 mph4.0 kmh 30.11 in1019.6 mb 0.00 in0.0 mm 0.00 in0.0 mm 0.00 in0.0 mm
08:35 AM 59.5°F15.3°C 53.4°F11.9°C 80% 1.0 mph W1.6 kmh W 1.6 mph2.6 kmh 30.11 in1019.6 mb 0.00 in0.0 mm 0.00 in0.0 mm 0.00 in0.0 mm
08:40 AM 59.4°F15.2°C 53.2°F11.8°C 80% 0.3 mph NW0.5 kmh NW 1.6 mph2.6 kmh 30.11 in1019.6 mb 0.00 in0.0 mm 0.00 in0.0 mm 0.00 in0.0 mm
08:45 AM 59.4°F15.2°C 53.2°F11.8°C 80% Calm Calm 0.7 mph1.1 kmh 30.11 in1019.6 mb 0.00 in0.0 mm 0.00 in0.0 mm 0.00 in0.0 mm
08:50 AM 59.2°F15.1°C 53.0°F11.7°C 80% Calm Calm -- 30.11 in1019.6 mb 0.00 in0.0 mm 0.00 in0.0 mm 0.00 in0.0 mm
08:55 AM 59.0°F15.0°C 53.2°F11.8°C 81% Calm Calm -- 30.11 in1019.6 mb 0.00 in0.0 mm 0.00 in0.0 mm 0.00 in0.0 mm
09:00 AM 59.0°F15.0°C 53.2°F11.8°C 81% 0.3 mph E0.5 kmh E 3.8 mph6.1 kmh 30.11 in1019.6 mb 0.00 in0.0 mm 0.00 in0.0 mm 0.00 in0.0 mm
09:05 AM 59.0°F15.0°C 53.2°F11.8°C 81% 1.9 mph ESE3.1 kmh ESE 4.0 mph6.4 kmh 30.11 in1019.6 mb 0.00 in0.0 mm 0.00 in0.0 mm 0.00 in0.0 mm
09:10 AM 58.8°F14.9°C 53.0°F11.7°C 81% 2.2 mph E3.5 kmh E 4.0 mph6.4 kmh 30.11 in1019.6 mb 0.00 in0.0 mm 0.00 in0.0 mm 0.00 in0.0 mm
09:15 AM 58.8°F14.9°C 53.0°F11.7°C 81% 0.9 mph ENE1.4 kmh ENE 1.3 mph2.1 kmh 30.11 in1019.6 mb 0.00 in0.0 mm 0.00 in0.0 mm 0.00 in0.0 mm
09:20 AM 58.8°F14.9°C 53.0°F11.7°C 81% 0.4 mph NNE0.6 kmh NNE 1.3 mph2.1 kmh 30.11 in1019.6 mb 0.00 in0.0 mm 0.00 in0.0 mm 0.00 in0.0 mm
09:25 AM 58.8°F14.9°C 53.0°F11.7°C 81% 0.2 mph W0.3 kmh W 0.9 mph1.4 kmh 30.11 in1019.6 mb 0.00 in0.0 mm 0.00 in0.0 mm 0.00 in0.0 mm
09:30 AM 58.8°F14.9°C 53.0°F11.7°C 81% Calm Calm -- 30.12 in1020.0 mb 0.00 in0.0 mm 0.00 in0.0 mm 0.00 in0.0 mm
09:35 AM 59.0°F15.0°C 53.2°F11.8°C 81% 0.7 mph SSE1.1 kmh SSE 2.0 mph3.2 kmh 30.11 in1019.6 mb 0.00 in0.0 mm 0.00 in0.0 mm 0.00 in0.0 mm
09:40 AM 59.0°F15.0°C 53.2°F11.8°C 81% 0.7 mph SSE1.1 kmh SSE 2.0 mph3.2 kmh 30.12 in1020.0 mb 0.00 in0.0 mm 0.00 in0.0 mm 0.00 in0.0 mm
09:45 AM 59.2°F15.1°C 53.7°F12.1°C 82% 0.4 mph SSE0.6 kmh SSE 3.1 mph5.0 kmh 30.11 in1019.6 mb 0.00 in0.0 mm 0.00 in0.0 mm 0.00 in0.0 mm
09:50 AM 59.2°F15.1°C 53.7°F12.1°C 82% 1.9 mph SSE3.1 kmh SSE 3.1 mph5.0 kmh 30.12 in1020.0 mb 0.00 in0.0 mm 0.00 in0.0 mm 0.00 in0.0 mm
09:55 AM 59.2°F15.1°C 53.7°F12.1°C 82% 3.1 mph SSE5.0 kmh SSE 3.1 mph5.0 kmh 30.12 in1020.0 mb 0.00 in0.0 mm 0.00 in0.0 mm 0.00 in0.0 mm
10:00 AM 59.2°F15.1°C 53.7°F12.1°C 82% 3.1 mph SSE5.0 kmh SSE 3.1 mph5.0 kmh 30.12 in1020.0 mb 0.00 in0.0 mm 0.00 in0.0 mm 0.00 in0.0 mm
10:05 AM 59.2°F15.1°C 53.7°F12.1°C 82% 3.1 mph SSE5.0 kmh SSE 3.1 mph5.0 kmh 30.12 in1020.0 mb 0.00 in0.0 mm 0.00 in0.0 mm 0.00 in0.0 mm
10:10 AM 59.2°F15.1°C 53.7°F12.1°C 82% 3.1 mph SSE5.0 kmh SSE 3.1 mph5.0 kmh 30.11 in1019.6 mb 0.00 in0.0 mm 0.00 in0.0 mm 0.00 in0.0 mm
10:15 AM 59.2°F15.1°C 53.7°F12.1°C 82% 3.1 mph SSE5.0 kmh SSE 3.1 mph5.0 kmh 30.12 in1020.0 mb 0.00 in0.0 mm 0.00 in0.0 mm 0.00 in0.0 mm
10:20 AM 59.2°F15.1°C 53.7°F12.1°C 82% 3.1 mph SSE5.0 kmh SSE 3.1 mph5.0 kmh 30.12 in1020.0 mb 0.00 in0.0 mm 0.00 in0.0 mm 0.00 in0.0 mm
10:25 AM 59.4°F15.2°C 53.9°F12.2°C 82% 3.1 mph SSE5.0 kmh SSE 3.1 mph5.0 kmh 30.12 in1020.0 mb 0.00 in0.0 mm 0.00 in0.0 mm 0.00 in0.0 mm
10:30 AM 59.5°F15.3°C 54.0°F12.2°C 82% 1.3 mph SSW2.1 kmh SSW 1.3 mph2.1 kmh 30.12 in1020.0 mb 0.00 in0.0 mm 0.00 in0.0 mm 0.00 in0.0 mm
10:35 AM 59.5°F15.3°C 54.0°F12.2°C 82% 0.5 mph SSW0.8 kmh SSW 1.3 mph2.1 kmh 30.13 in1020.3 mb 0.00 in0.0 mm 0.00 in0.0 mm 0.00 in0.0 mm
10:40 AM 59.5°F15.3°C 54.0°F12.2°C 82% 0.1 mph SSW0.2 kmh SSW 1.3 mph2.1 kmh 30.13 in1020.3 mb 0.00 in0.0 mm 0.00 in0.0 mm 0.00 in0.0 mm
10:45 AM 59.5°F15.3°C 54.0°F12.2°C 82% 0.3 mph E0.5 kmh E 0.9 mph1.4 kmh 30.13 in1020.3 mb 0.00 in0.0 mm 0.00 in0.0 mm 0.00 in0.0 mm
10:50 AM 59.5°F15.3°C 53.7°F12.1°C 81% 1.0 mph E1.6 kmh E 2.2 mph3.5 kmh 30.12 in1020.0 mb 0.00 in0.0 mm 0.00 in0.0 mm 0.00 in0.0 mm
10:55 AM 59.5°F15.3°C 53.7°F12.1°C 81% 0.9 mph ESE1.4 kmh ESE 2.2 mph3.5 kmh 30.12 in1020.0 mb 0.00 in0.0 mm 0.00 in0.0 mm 0.00 in0.0 mm
11:00 AM 59.5°F15.3°C 53.7°F12.1°C 81% 0.2 mph SSW0.3 kmh SSW 2.2 mph3.5 kmh 30.12 in1020.0 mb 0.00 in0.0 mm 0.00 in0.0 mm 0.00 in0.0 mm
11:05 AM 59.5°F15.3°C 53.7°F12.1°C 81% Calm Calm -- 30.11 in1019.6 mb 0.00 in0.0 mm 0.00 in0.0 mm 0.00 in0.0 mm
11:10 AM 59.5°F15.3°C 54.0°F12.2°C 82% Calm Calm -- 30.11 in1019.6 mb 0.00 in0.0 mm 0.00 in0.0 mm 0.00 in0.0 mm
11:15 AM 59.7°F15.4°C 54.2°F12.3°C 82% Calm Calm -- 30.11 in1019.6 mb 0.00 in0.0 mm 0.00 in0.0 mm 0.00 in0.0 mm
11:20 AM 59.7°F15.4°C 54.2°F12.3°C 82% Calm Calm -- 30.11 in1019.6 mb 0.00 in0.0 mm 0.00 in0.0 mm 0.00 in0.0 mm
11:25 AM 59.9°F15.5°C 54.4°F12.4°C 82% 0.4 mph SSW0.6 kmh SSW 1.6 mph2.6 kmh 30.11 in1019.6 mb 0.00 in0.0 mm 0.00 in0.0 mm 0.00 in0.0 mm
11:30 AM 60.1°F15.6°C 54.6°F12.6°C 82% 0.7 mph SSW1.1 kmh SSW 1.6 mph2.6 kmh 30.12 in1020.0 mb 0.00 in0.0 mm 0.00 in0.0 mm 0.00 in0.0 mm
11:35 AM 60.1°F15.6°C 54.6°F12.6°C 82% 0.7 mph SW1.1 kmh SW 2.5 mph4.0 kmh 30.11 in1019.6 mb 0.00 in0.0 mm 0.00 in0.0 mm 0.00 in0.0 mm
11:40 AM 60.1°F15.6°C 54.6°F12.6°C 82% 1.5 mph WSW2.4 kmh WSW 2.5 mph4.0 kmh 30.11 in1019.6 mb 0.00 in0.0 mm 0.00 in0.0 mm 0.00 in0.0 mm
11:45 AM 60.1°F15.6°C 54.2°F12.3°C 81% 1.7 mph SW2.7 kmh SW 2.9 mph4.7 kmh 30.12 in1020.0 mb 0.00 in0.0 mm 0.00 in0.0 mm 0.00 in0.0 mm
11:50 AM 60.3°F15.7°C 54.4°F12.4°C 81% 1.3 mph S2.1 kmh S 3.4 mph5.5 kmh 30.12 in1020.0 mb 0.00 in0.0 mm 0.00 in0.0 mm 0.00 in0.0 mm
11:55 AM 60.1°F15.6°C 54.6°F12.6°C 82% 0.7 mph S1.1 kmh S 3.4 mph5.5 kmh 30.12 in1020.0 mb 0.00 in0.0 mm 0.00 in0.0 mm 0.00 in0.0 mm
12:00 PM 60.1°F15.6°C 54.2°F12.3°C 81% 0.6 mph SSE1.0 kmh SSE 4.3 mph6.9 kmh 30.12 in1020.0 mb 0.00 in0.0 mm 0.00 in0.0 mm 0.00 in0.0 mm
12:05 PM 60.1°F15.6°C 54.2°F12.3°C 81% 0.9 mph SSE1.4 kmh SSE 4.3 mph6.9 kmh 30.12 in1020.0 mb 0.00 in0.0 mm 0.00 in0.0 mm 0.00 in0.0 mm
12:10 PM 59.9°F15.5°C 54.1°F12.3°C 81% 0.6 mph SE1.0 kmh SE 4.3 mph6.9 kmh 30.11 in1019.6 mb 0.00 in0.0 mm 0.00 in0.0 mm 0.00 in0.0 mm
12:15 PM 59.9°F15.5°C 54.1°F12.3°C 81% 0.2 mph ENE0.3 kmh ENE 1.1 mph1.8 kmh 30.11 in1019.6 mb 0.00 in0.0 mm 0.00 in0.0 mm 0.00 in0.0 mm
12:20 PM 59.9°F15.5°C 54.1°F12.3°C 81% Calm Calm -- 30.11 in1019.6 mb 0.00 in0.0 mm 0.00 in0.0 mm 0.00 in0.0 mm
12:25 PM 59.7°F15.4°C 53.9°F12.2°C 81% Calm Calm -- 30.11 in1019.6 mb 0.00 in0.0 mm 0.00 in0.0 mm 0.00 in0.0 mm
12:30 PM 59.7°F15.4°C 54.2°F12.3°C 82% Calm Calm -- 30.11 in1019.6 mb 0.00 in0.0 mm 0.00 in0.0 mm 0.00 in0.0 mm
12:35 PM 59.5°F15.3°C 54.0°F12.2°C 82% Calm Calm -- 30.11 in1019.6 mb 0.00 in0.0 mm 0.00 in0.0 mm 0.00 in0.0 mm
12:40 PM 59.5°F15.3°C 54.0°F12.2°C 82% 1.4 mph WSW2.3 kmh WSW 3.1 mph5.0 kmh 30.11 in1019.6 mb 0.00 in0.0 mm 0.00 in0.0 mm 0.00 in0.0 mm
12:45 PM 59.5°F15.3°C 54.0°F12.2°C 82% 2.5 mph WSW4.0 kmh WSW 3.1 mph5.0 kmh 30.11 in1019.6 mb 0.00 in0.0 mm 0.00 in0.0 mm 0.00 in0.0 mm
12:50 PM 59.5°F15.3°C 54.0°F12.2°C 82% 1.3 mph WSW2.1 kmh WSW 2.2 mph3.5 kmh 30.11 in1019.6 mb 0.00 in0.0 mm 0.00 in0.0 mm 0.00 in0.0 mm
12:55 PM 59.5°F15.3°C 54.0°F12.2°C 82% 0.2 mph WSW0.3 kmh WSW 2.2 mph3.5 kmh 30.11 in1019.6 mb 0.00 in0.0 mm 0.00 in0.0 mm 0.00 in0.0 mm
01:00 PM 59.5°F15.3°C 54.0°F12.2°C 82% Calm Calm -- 30.11 in1019.6 mb 0.00 in0.0 mm 0.00 in0.0 mm 0.00 in0.0 mm
01:05 PM 59.5°F15.3°C 54.0°F12.2°C 82% 0.1 mph WNW0.2 kmh WNW 0.7 mph1.1 kmh 30.11 in1019.6 mb 0.00 in0.0 mm 0.00 in0.0 mm 0.00 in0.0 mm
01:10 PM 59.5°F15.3°C 54.0°F12.2°C 82% 0.5 mph WNW0.8 kmh WNW 0.7 mph1.1 kmh 30.11 in1019.6 mb 0.00 in0.0 mm 0.00 in0.0 mm 0.00 in0.0 mm
01:15 PM 59.5°F15.3°C 54.4°F12.4°C 83% 0.9 mph W1.4 kmh W 2.5 mph4.0 kmh 30.11 in1019.6 mb 0.00 in0.0 mm 0.00 in0.0 mm 0.00 in0.0 mm
01:20 PM 59.5°F15.3°C 54.4°F12.4°C 83% 1.8 mph SW2.9 kmh SW 2.5 mph4.0 kmh 30.10 in1019.3 mb 0.00 in0.0 mm 0.00 in0.0 mm 0.00 in0.0 mm
01:25 PM 59.2°F15.1°C 54.0°F12.2°C 83% 1.9 mph SSW3.1 kmh SSW 2.5 mph4.0 kmh 30.10 in1019.3 mb 0.00 in0.0 mm 0.00 in0.0 mm 0.00 in0.0 mm
01:30 PM 59.2°F15.1°C 54.0°F12.2°C 83% 1.5 mph S2.4 kmh S 2.5 mph4.0 kmh 30.10 in1019.3 mb 0.00 in0.0 mm 0.00 in0.0 mm 0.00 in0.0 mm
01:35 PM 59.2°F15.1°C 54.0°F12.2°C 83% 0.9 mph S1.4 kmh S 2.5 mph4.0 kmh 30.10 in1019.3 mb 0.00 in0.0 mm 0.00 in0.0 mm 0.00 in0.0 mm
01:40 PM 58.8°F14.9°C 54.0°F12.2°C 84% 0.2 mph SSW0.3 kmh SSW 1.3 mph2.1 kmh 30.10 in1019.3 mb 0.02 in0.5 mm 0.24 in6.1 mm 0.02 in0.5 mm
01:45 PM 58.8°F14.9°C 54.0°F12.2°C 84% 0.5 mph WSW0.8 kmh WSW 1.6 mph2.6 kmh 30.10 in1019.3 mb 0.02 in0.5 mm 0.00 in0.0 mm 0.02 in0.5 mm
01:50 PM 58.8°F14.9°C 54.0°F12.2°C 84% 1.6 mph SW2.6 kmh SW 3.6 mph5.8 kmh 30.09 in1019.0 mb 0.02 in0.5 mm 0.00 in0.0 mm 0.02 in0.5 mm
01:55 PM 58.8°F14.9°C 54.0°F12.2°C 84% 3.0 mph SW4.8 kmh SW 3.6 mph5.8 kmh 30.09 in1019.0 mb 0.02 in0.5 mm 0.00 in0.0 mm 0.02 in0.5 mm
02:00 PM 58.8°F14.9°C 54.3°F12.4°C 85% 3.4 mph SSW5.5 kmh SSW 3.6 mph5.8 kmh 30.09 in1019.0 mb 0.02 in0.5 mm 0.00 in0.0 mm 0.02 in0.5 mm
02:05 PM 58.8°F14.9°C 54.3°F12.4°C 85% 2.1 mph SSW3.4 kmh SSW 3.6 mph5.8 kmh 30.09 in1019.0 mb 0.02 in0.5 mm 0.00 in0.0 mm 0.02 in0.5 mm
02:10 PM 58.8°F14.9°C 54.3°F12.4°C 85% 0.5 mph SSW0.8 kmh SSW 2.0 mph3.2 kmh 30.09 in1019.0 mb 0.02 in0.5 mm 0.00 in0.0 mm 0.02 in0.5 mm
02:15 PM 58.8°F14.9°C 54.3°F12.4°C 85% 0.1 mph SSE0.2 kmh SSE 0.9 mph1.4 kmh 30.09 in1019.0 mb 0.02 in0.5 mm 0.00 in0.0 mm 0.02 in0.5 mm
02:20 PM 58.8°F14.9°C 54.3°F12.4°C 85% 0.5 mph SW0.8 kmh SW 1.3 mph2.1 kmh 30.09 in1019.0 mb 0.02 in0.5 mm 0.00 in0.0 mm 0.02 in0.5 mm
02:25 PM 58.8°F14.9°C 54.3°F12.4°C 85% 0.3 mph SW0.5 kmh SW 1.3 mph2.1 kmh 30.09 in1019.0 mb 0.04 in1.0 mm 0.24 in6.1 mm 0.04 in1.0 mm
02:30 PM 58.8°F14.9°C 54.3°F12.4°C 85% Calm Calm -- 30.09 in1019.0 mb 0.04 in1.0 mm 0.00 in0.0 mm 0.04 in1.0 mm
02:35 PM 58.8°F14.9°C 54.6°F12.6°C 86% Calm Calm -- 30.09 in1019.0 mb 0.04 in1.0 mm 0.00 in0.0 mm 0.04 in1.0 mm
02:37 PM 18.3°F-7.6°C 14.8°F-9.6°C 86% Calm Calm -- 30.09 in1019.0 mb 0.04 in1.0 mm 0.00 in0.0 mm 0.04 in1.0 mm
02:40 PM 58.8°F14.9°C 54.6°F12.6°C 86% Calm Calm -- 30.09 in1019.0 mb 0.02 in0.5 mm 0.00 in0.0 mm 0.04 in1.0 mm
02:45 PM 58.8°F14.9°C 54.6°F12.6°C 86% Calm Calm -- 30.09 in1019.0 mb 0.02 in0.5 mm 0.00 in0.0 mm 0.04 in1.0 mm
02:50 PM 58.8°F14.9°C 54.6°F12.6°C 86% Calm Calm -- 30.09 in1019.0 mb 0.02 in0.5 mm 0.00 in0.0 mm 0.04 in1.0 mm
02:55 PM 58.8°F14.9°C 54.6°F12.6°C 86% Calm Calm -- 30.09 in1019.0 mb 0.02 in0.5 mm 0.00 in0.0 mm 0.04 in1.0 mm
03:00 PM 58.8°F14.9°C 54.6°F12.6°C 86% Calm Calm -- 30.09 in1019.0 mb 0.02 in0.5 mm 0.00 in0.0 mm 0.04 in1.0 mm
03:05 PM 58.8°F14.9°C 54.6°F12.6°C 86% Calm Calm -- 30.09 in1019.0 mb 0.02 in0.5 mm 0.00 in0.0 mm 0.04 in1.0 mm
03:10 PM 58.8°F14.9°C 54.6°F12.6°C 86% Calm Calm -- 30.09 in1019.0 mb 0.02 in0.5 mm 0.00 in0.0 mm 0.04 in1.0 mm
03:15 PM 58.8°F14.9°C 54.6°F12.6°C 86% Calm Calm -- 30.08 in1018.6 mb 0.02 in0.5 mm 0.00 in0.0 mm 0.04 in1.0 mm
03:20 PM 58.6°F14.8°C 54.5°F12.5°C 86% Calm Calm 1.6 mph2.6 kmh 30.08 in1018.6 mb 0.02 in0.5 mm 0.00 in0.0 mm 0.04 in1.0 mm
03:25 PM 58.5°F14.7°C 54.3°F12.4°C 86% 0.7 mph W1.1 kmh W 1.6 mph2.6 kmh 30.08 in1018.6 mb 0.00 in0.0 mm 0.00 in0.0 mm 0.04 in1.0 mm
03:30 PM 58.5°F14.7°C 54.3°F12.4°C 86% 0.6 mph W1.0 kmh W 1.6 mph2.6 kmh 30.08 in1018.6 mb 0.00 in0.0 mm 0.00 in0.0 mm 0.04 in1.0 mm
03:35 PM 58.5°F14.7°C 54.3°F12.4°C 86% Calm Calm -- 30.08 in1018.6 mb 0.00 in0.0 mm 0.00 in0.0 mm 0.04 in1.0 mm
03:37 PM 58.5°F14.7°C 54.3°F12.4°C 86% Calm Calm -- 30.08 in1018.6 mb 0.00 in0.0 mm 0.00 in0.0 mm 0.04 in1.0 mm
03:40 PM 58.3°F14.6°C 54.1°F12.3°C 86% Calm Calm -- 30.08 in1018.6 mb 0.00 in0.0 mm 0.00 in0.0 mm 0.04 in1.0 mm
03:45 PM 58.3°F14.6°C 54.1°F12.3°C 86% Calm Calm -- 30.08 in1018.6 mb 0.00 in0.0 mm 0.00 in0.0 mm 0.04 in1.0 mm
03:50 PM 58.3°F14.6°C 54.1°F12.3°C 86% Calm Calm -- 30.08 in1018.6 mb 0.02 in0.5 mm 0.24 in6.1 mm 0.06 in1.5 mm
03:55 PM 58.3°F14.6°C 54.1°F12.3°C 86% Calm Calm -- 30.09 in1019.0 mb 0.02 in0.5 mm 0.00 in0.0 mm 0.06 in1.5 mm
04:00 PM 58.3°F14.6°C 54.1°F12.3°C 86% 0.8 mph SW1.3 kmh SW 2.0 mph3.2 kmh 30.09 in1019.0 mb 0.02 in0.5 mm 0.00 in0.0 mm 0.06 in1.5 mm
04:05 PM 58.1°F14.5°C 54.2°F12.3°C 87% 1.9 mph SW3.1 kmh SW 6.9 mph11.1 kmh 30.10 in1019.3 mb 0.02 in0.5 mm 0.00 in0.0 mm 0.06 in1.5 mm
04:10 PM 58.1°F14.5°C 54.2°F12.3°C 87% 3.8 mph W6.1 kmh W 6.9 mph11.1 kmh 30.10 in1019.3 mb 0.04 in1.0 mm 0.24 in6.1 mm 0.08 in2.0 mm
04:15 PM 57.9°F14.4°C 54.1°F12.3°C 87% 4.1 mph W6.6 kmh W 6.9 mph11.1 kmh 30.09 in1019.0 mb 0.06 in1.5 mm 0.24 in6.1 mm 0.10 in2.5 mm
04:20 PM 57.7°F14.3°C 53.9°F12.2°C 87% 1.5 mph WSW2.4 kmh WSW 4.7 mph7.6 kmh 30.09 in1019.0 mb 0.10 in2.5 mm 0.48 in12.2 mm 0.14 in3.6 mm
04:25 PM 57.6°F14.2°C 53.7°F12.1°C 87% 0.5 mph W0.8 kmh W 4.7 mph7.6 kmh 30.09 in1019.0 mb 0.10 in2.5 mm 0.00 in0.0 mm 0.14 in3.6 mm
04:30 PM 57.4°F14.1°C 53.5°F11.9°C 87% 1.0 mph WNW1.6 kmh WNW 2.7 mph4.3 kmh 30.09 in1019.0 mb 0.12 in3.0 mm 0.24 in6.1 mm 0.16 in4.1 mm
04:35 PM 57.2°F14.0°C 53.4°F11.9°C 87% 1.3 mph WNW2.1 kmh WNW 2.7 mph4.3 kmh 30.10 in1019.3 mb 0.14 in3.6 mm 0.24 in6.1 mm 0.18 in4.6 mm
04:37 PM 57.2°F14.0°C 34.9°F1.6°C 43% 1.8 mph WNW2.9 kmh WNW 1.8 mph2.9 kmh 30.10 in1019.3 mb 0.14 in3.6 mm 0.00 in0.0 mm 0.18 in4.6 mm
04:40 PM 57.2°F14.0°C 53.4°F11.9°C 87% 1.4 mph WNW2.3 kmh WNW 2.5 mph4.0 kmh 30.09 in1019.0 mb 0.14 in3.6 mm 0.00 in0.0 mm 0.18 in4.6 mm
04:45 PM 57.0°F13.9°C 53.2°F11.8°C 87% 1.6 mph NW2.6 kmh NW 2.7 mph4.3 kmh 30.10 in1019.3 mb 0.20 in5.1 mm 0.72 in18.3 mm 0.24 in6.1 mm
04:50 PM 56.8°F13.8°C 53.0°F11.7°C 87% 0.7 mph N1.1 kmh N 2.7 mph4.3 kmh 30.10 in1019.3 mb 0.20 in5.1 mm 0.00 in0.0 mm 0.26 in6.6 mm
04:55 PM 56.8°F13.8°C 53.0°F11.7°C 87% Calm Calm -- 30.09 in1019.0 mb 0.20 in5.1 mm 0.00 in0.0 mm 0.26 in6.6 mm
05:00 PM 56.8°F13.8°C 53.0°F11.7°C 87% Calm Calm -- 30.09 in1019.0 mb 0.20 in5.1 mm 0.00 in0.0 mm 0.26 in6.6 mm
05:05 PM 56.8°F13.8°C 53.0°F11.7°C 87% Calm Calm -- 30.08 in1018.6 mb 0.22 in5.6 mm 0.24 in6.1 mm 0.29 in7.4 mm
05:10 PM 56.5°F13.6°C 53.0°F11.7°C 88% Calm Calm -- 30.07 in1018.3 mb 0.20 in5.1 mm 0.00 in0.0 mm 0.29 in7.4 mm
05:15 PM 56.5°F13.6°C 53.0°F11.7°C 88% Calm Calm -- 30.06 in1017.9 mb 0.19 in4.8 mm 0.00 in0.0 mm 0.29 in7.4 mm
05:20 PM 56.5°F13.6°C 53.0°F11.7°C 88% 0.5 mph SSW0.8 kmh SSW 2.5 mph4.0 kmh 30.05 in1017.6 mb 0.14 in3.6 mm 0.00 in0.0 mm 0.29 in7.4 mm
05:25 PM 56.5°F13.6°C 53.0°F11.7°C 88% 0.5 mph SSW0.8 kmh SSW 2.5 mph4.0 kmh 30.05 in1017.6 mb 0.14 in3.6 mm 0.00 in0.0 mm 0.29 in7.4 mm
05:30 PM 56.3°F13.5°C 52.8°F11.6°C 88% Calm Calm -- 30.06 in1017.9 mb 0.10 in2.5 mm 0.00 in0.0 mm 0.29 in7.4 mm
05:35 PM 56.1°F13.4°C 52.6°F11.4°C 88% 0.7 mph NNE1.1 kmh NNE 2.5 mph4.0 kmh 30.05 in1017.6 mb 0.16 in4.1 mm 0.72 in18.3 mm 0.35 in8.9 mm
05:37 PM 56.1°F13.4°C 52.6°F11.4°C 88% Calm Calm -- 30.05 in1017.6 mb 0.16 in4.1 mm 0.00 in0.0 mm 0.35 in8.9 mm
05:40 PM 56.1°F13.4°C 52.6°F11.4°C 88% 1.4 mph NNW2.3 kmh NNW 2.9 mph4.7 kmh 30.04 in1017.3 mb 0.19 in4.8 mm 0.60 in15.2 mm 0.37 in9.4 mm
05:45 PM 56.3°F13.5°C 52.8°F11.6°C 88% 2.6 mph W4.2 kmh W 5.4 mph8.7 kmh 30.05 in1017.6 mb 0.12 in3.0 mm 0.00 in0.0 mm 0.37 in9.4 mm
05:50 PM 56.3°F13.5°C 52.8°F11.6°C 88% 3.5 mph W5.6 kmh W 5.4 mph8.7 kmh 30.06 in1017.9 mb 0.12 in3.0 mm 0.00 in0.0 mm 0.39 in9.9 mm
05:55 PM 56.1°F13.4°C 52.6°F11.4°C 88% 2.6 mph WNW4.2 kmh WNW 5.4 mph8.7 kmh 30.05 in1017.6 mb 0.12 in3.0 mm 0.00 in0.0 mm 0.39 in9.9 mm
06:01 PM 56.1°F13.4°C 52.6°F11.4°C 88% 2.5 mph WNW4.0 kmh WNW 4.9 mph7.9 kmh 30.07 in1018.3 mb 0.12 in3.0 mm 0.00 in0.0 mm 0.39 in9.9 mm
06:37 PM 56.3°F13.5°C 52.8°F11.6°C 88% Calm Calm -- 30.07 in1018.3 mb 0.04 in1.0 mm 0.00 in0.0 mm 0.39 in9.9 mm
07:10 PM 56.5°F13.6°C 53.0°F11.7°C 88% Calm Calm -- 30.07 in1018.3 mb 0.00 in0.0 mm 0.00 in0.0 mm 0.39 in9.9 mm
07:15 PM 56.5°F13.6°C 53.0°F11.7°C 88% Calm Calm -- 30.07 in1018.3 mb 0.00 in0.0 mm 0.00 in0.0 mm 0.39 in9.9 mm
07:20 PM 56.5°F13.6°C 53.0°F11.7°C 88% Calm Calm -- 30.07 in1018.3 mb 0.00 in0.0 mm 0.00 in0.0 mm 0.39 in9.9 mm
07:25 PM 56.3°F13.5°C 52.8°F11.6°C 88% 0.2 mph WNW0.3 kmh WNW 0.9 mph1.4 kmh 30.07 in1018.3 mb 0.00 in0.0 mm 0.00 in0.0 mm 0.39 in9.9 mm
07:30 PM 56.3°F13.5°C 52.8°F11.6°C 88% 0.2 mph WNW0.3 kmh WNW 0.9 mph1.4 kmh 30.07 in1018.3 mb 0.00 in0.0 mm 0.00 in0.0 mm 0.39 in9.9 mm
07:35 PM 56.3°F13.5°C 52.8°F11.6°C 88% Calm Calm -- 30.07 in1018.3 mb 0.00 in0.0 mm 0.00 in0.0 mm 0.39 in9.9 mm
07:37 PM 56.3°F13.5°C 52.8°F11.6°C 88% Calm Calm -- 30.07 in1018.3 mb 0.00 in0.0 mm 0.00 in0.0 mm 0.39 in9.9 mm
07:40 PM 56.3°F13.5°C 52.8°F11.6°C 88% Calm Calm -- 30.07 in1018.3 mb 0.00 in0.0 mm 0.00 in0.0 mm 0.39 in9.9 mm
07:45 PM 56.3°F13.5°C 52.8°F11.6°C 88% Calm Calm -- 30.07 in1018.3 mb 0.00 in0.0 mm 0.00 in0.0 mm 0.39 in9.9 mm
07:50 PM 56.3°F13.5°C 52.8°F11.6°C 88% Calm Calm -- 30.07 in1018.3 mb 0.00 in0.0 mm 0.00 in0.0 mm 0.39 in9.9 mm
07:55 PM 56.3°F13.5°C 52.8°F11.6°C 88% Calm Calm -- 30.07 in1018.3 mb 0.00 in0.0 mm 0.00 in0.0 mm 0.39 in9.9 mm
08:00 PM 56.3°F13.5°C 52.8°F11.6°C 88% Calm Calm -- 30.07 in1018.3 mb 0.00 in0.0 mm 0.00 in0.0 mm 0.39 in9.9 mm
08:05 PM 56.3°F13.5°C 52.8°F11.6°C 88% Calm Calm -- 30.07 in1018.3 mb 0.00 in0.0 mm 0.00 in0.0 mm 0.39 in9.9 mm
08:10 PM 56.3°F13.5°C 52.8°F11.6°C 88% Calm Calm -- 30.07 in1018.3 mb 0.00 in0.0 mm 0.00 in0.0 mm 0.39 in9.9 mm
08:15 PM 56.1°F13.4°C 52.6°F11.4°C 88% Calm Calm -- 30.07 in1018.3 mb 0.00 in0.0 mm 0.00 in0.0 mm 0.39 in9.9 mm
08:20 PM 56.1°F13.4°C 52.9°F11.6°C 89% 0.1 mph SSW0.2 kmh SSW 1.1 mph1.8 kmh 30.07 in1018.3 mb 0.00 in0.0 mm 0.00 in0.0 mm 0.39 in9.9 mm
08:25 PM 56.1°F13.4°C 52.9°F11.6°C 89% 0.6 mph SSW1.0 kmh SSW 1.1 mph1.8 kmh 30.07 in1018.3 mb 0.00 in0.0 mm 0.00 in0.0 mm 0.39 in9.9 mm
08:30 PM 56.1°F13.4°C 52.9°F11.6°C 89% 0.7 mph SSW1.1 kmh SSW 1.1 mph1.8 kmh 30.08 in1018.6 mb 0.00 in0.0 mm 0.00 in0.0 mm 0.39 in9.9 mm
08:35 PM 56.1°F13.4°C 52.9°F11.6°C 89% 0.1 mph SSW0.2 kmh SSW 1.1 mph1.8 kmh 30.08 in1018.6 mb 0.00 in0.0 mm 0.00 in0.0 mm 0.39 in9.9 mm
08:37 PM 56.1°F13.4°C 52.9°F11.6°C 89% Calm Calm -- 30.07 in1018.3 mb 0.00 in0.0 mm 0.00 in0.0 mm 0.39 in9.9 mm
08:40 PM 56.1°F13.4°C 52.9°F11.6°C 89% Calm Calm -- 30.07 in1018.3 mb 0.00 in0.0 mm 0.00 in0.0 mm 0.39 in9.9 mm
08:45 PM 56.1°F13.4°C 52.9°F11.6°C 89% Calm Calm -- 30.07 in1018.3 mb 0.00 in0.0 mm 0.00 in0.0 mm 0.39 in9.9 mm
08:50 PM 56.1°F13.4°C 52.9°F11.6°C 89% Calm Calm -- 30.07 in1018.3 mb 0.00 in0.0 mm 0.00 in0.0 mm 0.39 in9.9 mm
08:55 PM 56.1°F13.4°C 52.9°F11.6°C 89% Calm Calm -- 30.07 in1018.3 mb 0.00 in0.0 mm 0.00 in0.0 mm 0.39 in9.9 mm
09:00 PM 56.1°F13.4°C 52.9°F11.6°C 89% Calm Calm -- 30.07 in1018.3 mb 0.00 in0.0 mm 0.00 in0.0 mm 0.39 in9.9 mm
09:05 PM 56.1°F13.4°C 52.9°F11.6°C 89% Calm Calm -- 30.06 in1017.9 mb 0.02 in0.5 mm 0.24 in6.1 mm 0.41 in10.4 mm
09:10 PM 56.1°F13.4°C 52.9°F11.6°C 89% Calm Calm -- 30.06 in1017.9 mb 0.02 in0.5 mm 0.00 in0.0 mm 0.41 in10.4 mm
09:15 PM 55.9°F13.3°C 52.7°F11.5°C 89% 0.4 mph WNW0.6 kmh WNW 1.8 mph2.9 kmh 30.06 in1017.9 mb 0.06 in1.5 mm 0.48 in12.2 mm 0.45 in11.4 mm
09:20 PM 55.9°F13.3°C 52.7°F11.5°C 89% 0.8 mph W1.3 kmh W 2.0 mph3.2 kmh 30.06 in1017.9 mb 0.08 in2.0 mm 0.24 in6.1 mm 0.47 in11.9 mm
09:25 PM 55.9°F13.3°C 52.7°F11.5°C 89% 0.5 mph WSW0.8 kmh WSW 2.0 mph3.2 kmh 30.06 in1017.9 mb 0.10 in2.5 mm 0.24 in6.1 mm 0.49 in12.4 mm
09:30 PM 55.9°F13.3°C 52.7°F11.5°C 89% Calm Calm -- 30.05 in1017.6 mb 0.10 in2.5 mm 0.00 in0.0 mm 0.49 in12.4 mm
09:35 PM 55.9°F13.3°C 52.7°F11.5°C 89% Calm Calm -- 30.05 in1017.6 mb 0.10 in2.5 mm 0.00 in0.0 mm 0.49 in12.4 mm
09:37 PM 55.9°F13.3°C 52.7°F11.5°C 89% Calm Calm -- 30.05 in1017.6 mb 0.10 in2.5 mm 0.00 in0.0 mm 0.49 in12.4 mm
09:40 PM 55.9°F13.3°C 52.7°F11.5°C 89% Calm Calm -- 30.04 in1017.3 mb 0.10 in2.5 mm 0.00 in0.0 mm 0.49 in12.4 mm
09:45 PM 55.9°F13.3°C 52.7°F11.5°C 89% Calm Calm -- 30.04 in1017.3 mb 0.10 in2.5 mm 0.00 in0.0 mm 0.49 in12.4 mm
09:50 PM 55.9°F13.3°C 53.0°F11.7°C 90% 1.4 mph SSW2.3 kmh SSW 3.4 mph5.5 kmh 30.04 in1017.3 mb 0.12 in3.0 mm 0.24 in6.1 mm 0.51 in13.0 mm
09:55 PM 55.9°F13.3°C 53.0°F11.7°C 90% 3.0 mph S4.8 kmh S 3.4 mph5.5 kmh 30.04 in1017.3 mb 0.12 in3.0 mm 0.00 in0.0 mm 0.51 in13.0 mm
10:00 PM 55.9°F13.3°C 53.0°F11.7°C 90% 3.4 mph S5.5 kmh S 3.4 mph5.5 kmh 30.04 in1017.3 mb 0.12 in3.0 mm 0.00 in0.0 mm 0.51 in13.0 mm
10:05 PM 55.9°F13.3°C 53.0°F11.7°C 90% 1.7 mph S2.7 kmh S 3.4 mph5.5 kmh 30.05 in1017.6 mb 0.14 in3.6 mm 0.24 in6.1 mm 0.55 in14.0 mm
10:10 PM 55.9°F13.3°C 53.0°F11.7°C 90% Calm Calm 3.4 mph5.5 kmh 30.04 in1017.3 mb 0.12 in3.0 mm 0.00 in0.0 mm 0.55 in14.0 mm
10:15 PM 55.9°F13.3°C 53.0°F11.7°C 90% Calm Calm -- 30.04 in1017.3 mb 0.10 in2.5 mm 0.00 in0.0 mm 0.55 in14.0 mm
10:20 PM 55.9°F13.3°C 53.0°F11.7°C 90% 0.2 mph SW0.3 kmh SW 0.9 mph1.4 kmh 30.04 in1017.3 mb 0.08 in2.0 mm 0.00 in0.0 mm 0.55 in14.0 mm
10:25 PM 55.9°F13.3°C 53.0°F11.7°C 90% 0.4 mph SW0.6 kmh SW 0.9 mph1.4 kmh 30.04 in1017.3 mb 0.06 in1.5 mm 0.00 in0.0 mm 0.55 in14.0 mm
10:30 PM 55.9°F13.3°C 53.0°F11.7°C 90% 0.1 mph SW0.2 kmh SW 0.9 mph1.4 kmh 30.05 in1017.6 mb 0.06 in1.5 mm 0.00 in0.0 mm 0.55 in14.0 mm
10:35 PM 55.9°F13.3°C 53.0°F11.7°C 90% Calm Calm -- 30.05 in1017.6 mb 0.06 in1.5 mm 0.00 in0.0 mm 0.55 in14.0 mm
10:37 PM 55.9°F13.3°C 53.0°F11.7°C 90% Calm Calm -- 30.05 in1017.6 mb 0.06 in1.5 mm 0.00 in0.0 mm 0.55 in14.0 mm
10:40 PM 55.9°F13.3°C 53.0°F11.7°C 90% Calm Calm -- 30.04 in1017.3 mb 0.06 in1.5 mm 0.00 in0.0 mm 0.55 in14.0 mm
10:45 PM 55.9°F13.3°C 53.0°F11.7°C 90% Calm Calm -- 30.04 in1017.3 mb 0.06 in1.5 mm 0.00 in0.0 mm 0.55 in14.0 mm
10:50 PM 55.9°F13.3°C 53.0°F11.7°C 90% Calm Calm -- 30.04 in1017.3 mb 0.04 in1.0 mm 0.00 in0.0 mm 0.55 in14.0 mm
10:55 PM 55.9°F13.3°C 53.0°F11.7°C 90% Calm Calm -- 30.04 in1017.3 mb 0.04 in1.0 mm 0.00 in0.0 mm 0.55 in14.0 mm
11:00 PM 55.9°F13.3°C 53.0°F11.7°C 90% Calm Calm -- 30.05 in1017.6 mb 0.04 in1.0 mm 0.00 in0.0 mm 0.49 in12.4 mm
11:05 PM 55.9°F13.3°C 53.0°F11.7°C 90% Calm Calm -- 30.04 in1017.3 mb 0.00 in0.0 mm 0.00 in0.0 mm 0.49 in12.4 mm
11:10 PM 55.9°F13.3°C 53.0°F11.7°C 90% Calm Calm -- 30.04 in1017.3 mb 0.00 in0.0 mm 0.00 in0.0 mm 0.49 in12.4 mm
11:15 PM 55.9°F13.3°C 53.0°F11.7°C 90% Calm Calm -- 30.04 in1017.3 mb 0.00 in0.0 mm 0.00 in0.0 mm 0.49 in12.4 mm
11:20 PM 56.1°F13.4°C 53.2°F11.8°C 90% Calm Calm -- 30.04 in1017.3 mb 0.00 in0.0 mm 0.00 in0.0 mm 0.49 in12.4 mm
11:25 PM 56.1°F13.4°C 53.2°F11.8°C 90% Calm Calm -- 30.04 in1017.3 mb 0.00 in0.0 mm 0.00 in0.0 mm 0.49 in12.4 mm
11:30 PM 56.1°F13.4°C 53.2°F11.8°C 90% Calm Calm -- 30.04 in1017.3 mb 0.00 in0.0 mm 0.00 in0.0 mm 0.49 in12.4 mm
11:35 PM 56.1°F13.4°C 53.2°F11.8°C 90% Calm Calm -- 30.04 in1017.3 mb 0.00 in0.0 mm 0.00 in0.0 mm 0.49 in12.4 mm
11:37 PM 56.1°F13.4°C 53.2°F11.8°C 90% Calm Calm -- 30.04 in1017.3 mb 0.00 in0.0 mm 0.00 in0.0 mm 0.49 in12.4 mm
11:40 PM 56.1°F13.4°C 53.2°F11.8°C 90% Calm Calm -- 30.04 in1017.3 mb 0.00 in0.0 mm 0.00 in0.0 mm 0.49 in12.4 mm
11:45 PM 56.1°F13.4°C 53.2°F11.8°C 90% Calm Calm -- 30.04 in1017.3 mb 0.00 in0.0 mm 0.00 in0.0 mm 0.49 in12.4 mm
11:50 PM 56.1°F13.4°C 53.2°F11.8°C 90% Calm Calm -- 30.04 in1017.3 mb 0.00 in0.0 mm 0.00 in0.0 mm 0.49 in12.4 mm
11:55 PM 56.1°F13.4°C 53.2°F11.8°C 90% Calm Calm -- 30.03 in1016.9 mb 0.00 in0.0 mm 0.00 in0.0 mm 0.49 in12.4 mm